Time;durP1;ratioP1;P1;durP2;ratioP2;P2;SDS_P1;SDS_P2;PMS_P1;PMS_P2;Temp;Humidity;BMP_temperature;BMP_pressure;BME280_temperature;BME280_humidity;BME280_pressure;Samples;Min_cycle;Max_cycle;Signal;HPM_P1;HPM_P2
2022/05/03 03:02:14;;;;;;;1.20;1.20;;;14.10;74.10;;;;;;5430162;23;20512;-69
2022/05/03 03:04:45;;;;;;;1.30;1.30;;;14.10;74.30;;;;;;4995504;28;20965;-69
2022/05/03 03:07:17;;;;;;;1.30;1.30;;;14.00;74.40;;;;;;4995393;28;20484;-68
2022/05/03 03:09:48;;;;;;;1.20;1.20;;;14.00;74.50;;;;;;4995726;28;20505;-68
2022/05/03 03:12:26;;;;;;;1.30;1.30;;;14.00;74.70;;;;;;4995365;28;20949;-68
2022/05/03 03:15:03;;;;;;;1.40;1.30;;;14.00;74.70;;;;;;4996790;28;20473;-68
2022/05/03 03:17:36;;;;;;;1.20;1.20;;;14.00;74.70;;;;;;4995506;28;20429;-68
2022/05/03 03:20:06;;;;;;;1.20;1.20;;;14.00;74.50;;;;;;4995454;28;20437;-68
2022/05/03 03:22:37;;;;;;;1.23;1.23;;;14.00;74.40;;;;;;4995313;28;20492;-68
2022/05/03 03:25:06;;;;;;;1.30;1.27;;;14.00;74.40;;;;;;4995506;28;20448;-68
2022/05/03 03:27:34;;;;;;;1.10;1.10;;;13.90;74.40;;;;;;4995310;28;20449;-68
2022/05/03 03:30:04;;;;;;;1.30;1.30;;;13.90;74.40;;;;;;4995255;28;20453;-68
2022/05/03 03:32:33;;;;;;;1.20;1.20;;;13.90;74.30;;;;;;4995290;28;20504;-68
2022/05/03 03:35:00;;;;;;;1.20;1.20;;;13.90;74.30;;;;;;4995165;28;20565;-69
2022/05/03 03:37:29;;;;;;;1.20;1.10;;;13.80;74.60;;;;;;4995277;28;20862;-69
2022/05/03 03:39:57;;;;;;;1.20;1.20;;;13.80;74.50;;;;;;4995039;28;20445;-69
2022/05/03 03:42:23;;;;;;;1.20;1.20;;;13.80;74.50;;;;;;4994882;28;20479;-69
2022/05/03 03:44:52;;;;;;;1.53;1.43;;;13.80;74.70;;;;;;4994933;28;20820;-68
2022/05/03 03:47:19;;;;;;;1.40;1.30;;;13.80;74.70;;;;;;4994894;28;20508;-69
2022/05/03 03:49:47;;;;;;;1.20;1.20;;;13.80;74.70;;;;;;4994964;28;20507;-69
2022/05/03 03:52:15;;;;;;;1.20;1.20;;;13.80;74.70;;;;;;4995283;28;20472;-69
2022/05/03 03:54:43;;;;;;;1.60;1.50;;;13.80;74.90;;;;;;4994942;28;20457;-69
2022/05/03 03:57:10;;;;;;;1.40;1.40;;;13.70;75.00;;;;;;4995005;28;20496;-69
2022/05/03 03:59:38;;;;;;;1.23;1.13;;;13.70;75.20;;;;;;4994674;28;20445;-68
2022/05/03 04:02:05;;;;;;;1.00;1.00;;;13.70;74.80;;;;;;4994421;28;20531;-69
2022/05/03 04:04:35;;;;;;;1.00;1.00;;;13.60;73.20;;;;;;4994248;28;20458;-69
2022/05/03 04:07:04;;;;;;;1.00;1.00;;;13.40;73.40;;;;;;4994306;28;20960;-67
2022/05/03 04:09:31;;;;;;;1.03;1.03;;;13.20;72.30;;;;;;4994448;28;20794;-69
2022/05/03 04:12:00;;;;;;;1.00;1.00;;;13.20;72.30;;;;;;4994406;28;20948;-69
2022/05/03 04:14:27;;;;;;;1.30;1.20;;;13.10;72.20;;;;;;4994469;28;20441;-69
2022/05/03 04:16:54;;;;;;;1.00;1.00;;;13.10;72.80;;;;;;4994316;28;20484;-69
2022/05/03 04:19:21;;;;;;;1.10;1.10;;;13.00;73.30;;;;;;4994351;28;20445;-69
2022/05/03 04:21:48;;;;;;;1.30;1.30;;;13.00;73.70;;;;;;4993165;28;21055;-69
2022/05/03 04:24:16;;;;;;;1.10;1.10;;;13.10;73.90;;;;;;4994358;28;20461;-69
2022/05/03 04:26:43;;;;;;;1.20;1.20;;;13.10;74.40;;;;;;4994274;28;20864;-69
2022/05/03 04:29:10;;;;;;;1.17;1.13;;;13.10;74.80;;;;;;4993927;28;21007;-69
2022/05/03 04:31:37;;;;;;;1.23;1.23;;;13.20;75.20;;;;;;4994145;28;20845;-69
2022/05/03 04:34:05;;;;;;;1.50;1.40;;;13.20;75.40;;;;;;4994100;28;20548;-69
2022/05/03 04:36:33;;;;;;;1.57;1.47;;;13.30;75.40;;;;;;4994123;28;20532;-68
2022/05/03 04:39:00;;;;;;;1.50;1.40;;;13.40;75.50;;;;;;4994176;28;20445;-69
2022/05/03 04:41:28;;;;;;;1.20;1.20;;;13.40;75.70;;;;;;4994135;28;20469;-69
2022/05/03 04:43:54;;;;;;;1.20;1.20;;;13.50;75.60;;;;;;4994117;28;20441;-69
2022/05/03 04:46:21;;;;;;;1.07;1.07;;;13.60;75.70;;;;;;4994108;28;20452;-69
2022/05/03 04:48:48;;;;;;;1.20;1.20;;;13.70;75.80;;;;;;4993700;28;21045;-69
2022/05/03 04:51:19;;;;;;;1.20;1.20;;;13.80;75.90;;;;;;4993939;28;20876;-69
2022/05/03 04:53:46;;;;;;;1.37;1.37;;;13.90;76.00;;;;;;4994046;28;20452;-69
2022/05/03 04:56:22;;;;;;;1.20;1.20;;;14.00;75.90;;;;;;4993812;28;20479;-69
2022/05/03 04:58:51;;;;;;;1.40;1.30;;;14.10;75.60;;;;;;4994148;28;20441;-69
2022/05/03 05:01:19;;;;;;;1.33;1.33;;;14.20;75.30;;;;;;4993629;28;20484;-69
2022/05/03 05:03:46;;;;;;;1.50;1.40;;;14.40;75.10;;;;;;4994007;28;20528;-69
2022/05/03 05:06:12;;;;;;;1.40;1.40;;;14.50;74.80;;;;;;4994006;28;20449;-69
2022/05/03 05:08:40;;;;;;;1.20;1.20;;;14.70;74.60;;;;;;4994244;28;20453;-69
2022/05/03 05:11:07;;;;;;;1.20;1.20;;;14.80;74.40;;;;;;4993925;28;20465;-69
2022/05/03 05:13:34;;;;;;;1.30;1.30;;;15.00;73.60;;;;;;4993886;28;20496;-69
2022/05/03 05:16:02;;;;;;;1.40;1.30;;;15.10;73.70;;;;;;4993651;28;20476;-69
2022/05/03 05:18:28;;;;;;;1.20;1.20;;;15.10;73.20;;;;;;4993928;28;20450;-69
2022/05/03 05:20:55;;;;;;;0.93;0.93;;;15.00;73.70;;;;;;4993691;28;20473;-69
2022/05/03 05:23:22;;;;;;;1.53;1.43;;;14.90;73.70;;;;;;4993740;28;20486;-69
2022/05/03 05:25:50;;;;;;;1.40;1.30;;;14.80;73.20;;;;;;4993438;28;20453;-69
2022/05/03 05:28:17;;;;;;;1.20;1.10;;;14.70;73.20;;;;;;4993885;28;20437;-69
2022/05/03 05:30:44;;;;;;;1.30;1.27;;;14.80;72.70;;;;;;4993636;28;20473;-69
2022/05/03 05:33:13;;;;;;;1.30;1.30;;;14.60;72.80;;;;;;4996316;28;20961;-69
2022/05/03 05:35:40;;;;;;;1.37;1.27;;;14.40;74.00;;;;;;4996973;28;20929;-68
2022/05/03 05:38:08;;;;;;;1.20;1.20;;;14.80;73.60;;;;;;4997333;28;20808;-69
2022/05/03 05:40:34;;;;;;;1.13;1.13;;;15.10;73.30;;;;;;4997242;28;20465;-69
2022/05/03 05:43:01;;;;;;;1.20;1.20;;;15.40;73.10;;;;;;4997219;28;20527;-69
2022/05/03 05:45:28;;;;;;;1.10;1.10;;;15.80;73.10;;;;;;4997275;28;20499;-68
2022/05/03 05:47:55;;;;;;;1.10;1.10;;;16.00;72.30;;;;;;4997202;28;20460;-67
2022/05/03 05:50:23;;;;;;;1.10;1.10;;;16.40;71.20;;;;;;4997274;28;20503;-68
2022/05/03 05:55:35;;;;;;;1.03;1.03;;;17.00;69.40;;;;;;4996997;28;20455;-68
2022/05/03 05:58:01;;;;;;;1.17;1.17;;;17.00;69.20;;;;;;4996571;28;20453;-69
2022/05/03 06:00:28;;;;;;;2.50;1.30;;;17.00;68.80;;;;;;4996812;28;20449;-69
2022/05/03 06:02:55;;;;;;;1.10;1.10;;;16.90;69.20;;;;;;4996517;28;20461;-69
2022/05/03 06:05:23;;;;;;;1.10;1.10;;;16.80;69.60;;;;;;4996441;28;20945;-69
2022/05/03 06:07:49;;;;;;;1.30;1.30;;;16.80;69.80;;;;;;4996780;28;20445;-69
2022/05/03 06:10:16;;;;;;;1.20;1.20;;;16.20;70.90;;;;;;4996830;28;20461;-69
2022/05/03 06:12:44;;;;;;;1.50;1.40;;;15.80;72.10;;;;;;4996583;28;20477;-69
2022/05/03 06:15:12;;;;;;;1.13;1.13;;;15.60;72.20;;;;;;4996697;28;20478;-69
2022/05/03 06:17:40;;;;;;;1.30;1.30;;;15.80;72.90;;;;;;4996183;28;20572;-69
2022/05/03 06:20:07;;;;;;;1.30;1.30;;;16.10;72.10;;;;;;4996485;28;20457;-69
2022/05/03 06:22:35;;;;;;;1.20;1.20;;;16.40;71.70;;;;;;4996412;28;20527;-69
2022/05/03 06:25:03;;;;;;;1.47;1.30;;;16.60;71.70;;;;;;4996368;28;20453;-69
2022/05/03 06:27:31;;;;;;;1.40;1.30;;;16.70;70.60;;;;;;4996375;28;20449;-69
2022/05/03 06:29:57;;;;;;;1.33;1.33;;;16.60;70.80;;;;;;4996126;28;20445;-68
2022/05/03 06:32:24;;;;;;;1.40;1.40;;;16.80;70.20;;;;;;4995957;28;20535;-69
2022/05/03 06:34:50;;;;;;;1.37;1.27;;;16.90;69.30;;;;;;4996319;28;20445;-69
2022/05/03 06:37:17;;;;;;;1.47;1.20;;;17.30;69.40;;;;;;4996274;28;20481;-69
2022/05/03 06:39:45;;;;;;;1.10;1.10;;;17.50;68.60;;;;;;4996245;28;20540;-70
2022/05/03 06:42:12;;;;;;;0.97;0.97;;;17.70;68.30;;;;;;4996233;28;20469;-69
2022/05/03 06:44:39;;;;;;;1.20;1.20;;;17.90;67.40;;;;;;4995135;28;20480;-69
2022/05/03 06:47:06;;;;;;;1.30;1.20;;;18.00;65.70;;;;;;4996127;28;20445;-69
2022/05/03 06:49:32;;;;;;;1.10;1.10;;;18.20;66.00;;;;;;4996179;28;20481;-69
2022/05/03 06:51:59;;;;;;;1.10;1.10;;;18.30;64.40;;;;;;4996137;28;20527;-69
2022/05/03 06:54:26;;;;;;;1.00;1.00;;;18.40;65.30;;;;;;4996099;28;20206;-69
2022/05/03 06:56:54;;;;;;;0.90;0.90;;;18.50;65.00;;;;;;4995899;28;20481;-68
2022/05/03 06:59:20;;;;;;;1.00;1.00;;;18.40;64.00;;;;;;4995487;28;20870;-68
2022/05/03 07:01:47;;;;;;;1.10;1.10;;;18.70;64.90;;;;;;4995140;28;20507;-68
2022/05/03 07:04:14;;;;;;;0.90;0.90;;;19.00;64.20;;;;;;4995530;28;20504;-69
2022/05/03 07:06:40;;;;;;;1.10;1.10;;;18.60;63.30;;;;;;4995749;28;20449;-68
2022/05/03 07:09:07;;;;;;;0.80;0.80;;;18.50;64.40;;;;;;4995527;28;20449;-69
2022/05/03 07:11:34;;;;;;;1.20;1.20;;;18.70;64.00;;;;;;4995571;28;20880;-69
2022/05/03 07:14:02;;;;;;;1.10;1.10;;;19.00;64.00;;;;;;4995580;28;20453;-68
2022/05/03 07:16:29;;;;;;;1.20;1.20;;;19.10;63.60;;;;;;4995479;28;20482;-69
2022/05/03 07:24:24;;;;;;;1.17;1.00;;;19.60;62.30;;;;;;4995355;28;20532;-69
2022/05/03 07:26:51;;;;;;;1.10;1.10;;;20.00;62.20;;;;;;4995063;28;20846;-68
2022/05/03 07:29:19;;;;;;;1.27;1.17;;;20.20;61.30;;;;;;4995223;28;20548;-69
2022/05/03 07:31:47;;;;;;;1.33;0.93;;;20.60;61.00;;;;;;4995072;28;20477;-69
2022/05/03 07:34:13;;;;;;;1.10;1.10;;;20.80;60.40;;;;;;4995940;28;20457;-68
2022/05/03 07:36:42;;;;;;;1.30;1.20;;;21.00;59.50;;;;;;4995769;28;20488;-69
2022/05/03 07:39:10;;;;;;;0.90;0.90;;;20.80;61.30;;;;;;4995444;28;20452;-69
2022/05/03 07:41:37;;;;;;;1.20;1.13;;;20.90;59.70;;;;;;4994995;28;20479;-68
2022/05/03 07:44:04;;;;;;;1.00;1.00;;;20.70;61.50;;;;;;4994745;28;20865;-69
2022/05/03 07:46:32;;;;;;;1.07;1.03;;;20.60;60.20;;;;;;4994941;28;20446;-69
2022/05/03 07:48:59;;;;;;;1.00;1.00;;;20.40;61.80;;;;;;4994918;28;20450;-70
2022/05/03 07:51:25;;;;;;;1.10;1.10;;;20.20;60.10;;;;;;4994768;28;20473;-68
2022/05/03 07:53:52;;;;;;;1.07;1.07;;;20.10;61.20;;;;;;4994811;28;20454;-70
2022/05/03 07:56:19;;;;;;;1.30;0.97;;;20.10;61.60;;;;;;4994596;28;20535;-68
2022/05/03 07:58:46;;;;;;;0.90;0.90;;;20.30;60.70;;;;;;4994832;28;20453;-69
2022/05/03 08:01:12;;;;;;;1.00;1.00;;;20.10;60.30;;;;;;4994458;28;20476;-69
2022/05/03 08:03:40;;;;;;;1.00;1.00;;;20.10;61.50;;;;;;4994691;28;20449;-69
2022/05/03 08:06:07;;;;;;;1.00;1.00;;;20.20;60.60;;;;;;4994651;28;20495;-69
2022/05/03 08:08:34;;;;;;;0.93;0.93;;;20.50;60.90;;;;;;4994583;28;20453;-69
2022/05/03 08:11:00;;;;;;;0.90;0.90;;;20.70;60.90;;;;;;4994364;28;20488;-69
2022/05/03 08:13:27;;;;;;;0.83;0.83;;;20.80;58.10;;;;;;4994406;28;20456;-69
2022/05/03 08:15:54;;;;;;;1.13;1.00;;;20.40;58.70;;;;;;4994436;28;20452;-68
2022/05/03 08:18:20;;;;;;;1.07;0.97;;;20.10;59.70;;;;;;4994363;28;20500;-68
2022/05/03 08:20:48;;;;;;;1.00;1.00;;;19.60;61.10;;;;;;4994385;28;20477;-69
2022/05/03 08:23:15;;;;;;;1.43;1.33;;;19.50;62.50;;;;;;4994304;28;20449;-69
2022/05/03 08:25:42;;;;;;;0.97;0.97;;;19.20;62.60;;;;;;4994211;28;20452;-69
2022/05/03 08:28:08;;;;;;;1.30;0.93;;;19.10;63.10;;;;;;4994327;28;20448;-68
2022/05/03 08:30:35;;;;;;;1.20;1.20;;;19.20;64.30;;;;;;4994568;28;20860;-68
2022/05/03 08:33:02;;;;;;;1.03;1.03;;;19.20;63.50;;;;;;4994117;28;20485;-69
2022/05/03 08:35:29;;;;;;;1.07;1.00;;;19.50;63.20;;;;;;4994157;28;20825;-69
2022/05/03 08:43:26;;;;;;;0.97;0.90;;;20.00;63.00;;;;;;4993929;28;20459;-68
2022/05/03 08:45:52;;;;;;;0.90;0.90;;;20.30;62.50;;;;;;4993802;28;20449;-68
2022/05/03 08:48:28;;;;;;;1.00;1.00;;;20.60;60.50;;;;;;4994162;28;20445;-71
2022/05/03 08:50:55;;;;;;;0.80;0.80;;;20.30;61.00;;;;;;4993923;28;20917;-70
2022/05/03 08:53:23;;;;;;;0.80;0.80;;;20.50;60.20;;;;;;4994424;28;20500;-71
2022/05/03 08:55:51;;;;;;;1.00;1.00;;;20.70;62.00;;;;;;4994124;28;20453;-70
2022/05/03 08:58:19;;;;;;;0.80;0.80;;;20.70;61.00;;;;;;4995074;28;20901;-71
2022/05/03 09:00:46;;;;;;;0.90;0.90;;;20.90;61.50;;;;;;4995214;28;20485;-72
2022/05/03 09:03:14;;;;;;;0.80;0.80;;;21.00;60.00;;;;;;4994876;28;20476;-72
2022/05/03 09:05:42;;;;;;;1.00;0.90;;;21.00;58.60;;;;;;4995319;28;20453;-72
2022/05/03 09:08:12;;;;;;;0.80;0.80;;;21.00;58.40;;;;;;4997719;28;20456;-72
2022/05/03 09:10:42;;;;;;;0.90;0.80;;;20.90;57.40;;;;;;4998731;28;20816;-72
2022/05/03 09:13:18;;;;;;;0.90;0.90;;;20.80;59.40;;;;;;4997868;28;20477;-68
2022/05/03 09:15:45;;;;;;;0.80;0.80;;;21.00;58.50;;;;;;4998948;28;20484;-68
2022/05/03 09:18:21;;;;;;;1.00;0.90;;;20.90;58.30;;;;;;4997164;28;20931;-69
2022/05/03 09:23:49;;;;;;;0.80;0.80;;;21.00;58.20;;;;;;4956503;29;20517;-69
2022/05/03 09:26:19;;;;;;;0.80;0.80;;;21.30;58.60;;;;;;4989099;28;20488;-69
2022/05/03 09:28:48;;;;;;;0.70;0.70;;;21.60;57.50;;;;;;4997439;28;20448;-68
2022/05/03 09:31:27;;;;;;;0.80;0.80;;;21.50;56.10;;;;;;4997342;28;20543;-68
2022/05/03 09:33:54;;;;;;;0.80;0.80;;;21.50;58.00;;;;;;4997232;28;20437;-69
2022/05/03 09:36:21;;;;;;;0.80;0.80;;;21.60;57.40;;;;;;4997278;28;20515;-69
2022/05/03 09:38:48;;;;;;;1.00;0.80;;;21.60;57.50;;;;;;4997226;28;20456;-69
2022/05/03 09:41:16;;;;;;;0.90;0.90;;;21.70;57.30;;;;;;4997229;28;20472;-69
2022/05/03 09:44:04;;;;;;;0.97;0.70;;;22.10;55.60;;;;;;4996840;28;20937;-69
2022/05/03 09:46:31;;;;;;;0.70;0.60;;;22.00;53.50;;;;;;4997024;28;20433;-68
2022/05/03 09:48:58;;;;;;;0.70;0.60;;;21.80;54.40;;;;;;4997043;28;20862;-69
2022/05/03 09:51:25;;;;;;;0.60;0.60;;;21.70;50.90;;;;;;4996994;28;20492;-69
2022/05/03 09:53:57;;;;;;;0.70;0.60;;;21.90;53.00;;;;;;4997042;28;20452;-69
2022/05/03 09:56:26;;;;;;;0.60;0.60;;;21.90;51.60;;;;;;4997786;28;20771;-68
2022/05/03 09:58:57;;;;;;;0.63;0.60;;;21.80;51.50;;;;;;4996910;28;20488;-68
2022/05/03 10:01:27;;;;;;;0.60;0.60;;;22.00;51.90;;;;;;4996521;28;20567;-69
2022/05/03 10:03:55;;;;;;;0.70;0.70;;;21.90;51.00;;;;;;4996661;28;20453;-68
2022/05/03 10:06:21;;;;;;;0.70;0.70;;;21.90;50.10;;;;;;4996738;28;20460;-68
2022/05/03 10:08:51;;;;;;;0.70;0.60;;;22.20;51.20;;;;;;4996683;28;20509;-68
2022/05/03 10:11:18;;;;;;;0.80;0.80;;;22.50;50.30;;;;;;4996429;28;20465;-69
2022/05/03 10:13:45;;;;;;;0.60;0.60;;;22.50;48.70;;;;;;4996564;28;20536;-68
2022/05/03 10:21:49;;;;;;;1.10;0.70;;;22.30;50.10;;;;;;4996321;28;20945;-68
2022/05/03 10:24:16;;;;;;;0.70;0.60;;;22.00;49.60;;;;;;4996490;28;20445;-69
2022/05/03 10:27:02;;;;;;;0.70;0.60;;;22.00;51.70;;;;;;4996484;28;20445;-69
2022/05/03 10:29:32;;;;;;;0.60;0.60;;;22.20;50.80;;;;;;4996671;28;20452;-68
2022/05/03 10:32:02;;;;;;;0.60;0.60;;;22.40;51.80;;;;;;4996132;28;20999;-68
2022/05/03 10:34:51;;;;;;;0.70;0.67;;;22.30;49.00;;;;;;4996480;28;20437;-68
2022/05/03 10:37:20;;;;;;;0.70;0.60;;;22.10;49.60;;;;;;4996311;28;20499;-69
2022/05/03 10:39:51;;;;;;;0.80;0.80;;;21.60;50.70;;;;;;4996245;28;20449;-69
2022/05/03 10:42:21;;;;;;;0.73;0.73;;;21.70;51.30;;;;;;4996396;28;20523;-69
2022/05/03 10:45:03;;;;;;;0.70;0.60;;;21.50;50.90;;;;;;4995880;28;20973;-69
2022/05/03 10:47:52;;;;;;;0.60;0.60;;;21.70;52.30;;;;;;4995813;28;20465;-68
2022/05/03 10:50:34;;;;;;;0.70;0.70;;;21.90;52.00;;;;;;4992926;28;20864;-68
2022/05/03 10:53:32;;;;;;;0.80;0.70;;;22.40;51.20;;;;;;4996591;28;20967;-68
2022/05/03 10:56:12;;;;;;;0.80;0.70;;;22.90;51.10;;;;;;4995546;28;20629;-69
2022/05/03 10:58:40;;;;;;;0.70;0.70;;;22.90;51.50;;;;;;4995818;28;20465;-69
2022/05/03 11:01:09;;;;;;;0.60;0.60;;;23.20;50.90;;;;;;4995679;28;20535;-70
2022/05/03 11:03:37;;;;;;;0.60;0.60;;;23.20;48.80;;;;;;4996243;28;20556;-69
2022/05/03 11:06:43;;;;;;;0.63;0.60;;;23.40;48.40;;;;;;4996306;28;20449;-69
2022/05/03 11:09:15;;;;;;;0.80;0.70;;;23.80;47.70;;;;;;4996027;28;20445;-68
2022/05/03 11:12:09;;;;;;;0.60;0.60;;;24.00;48.60;;;;;;4995366;28;21051;-69
2022/05/03 11:14:47;;;;;;;0.80;0.80;;;24.30;48.90;;;;;;4995489;28;20429;-69
2022/05/03 11:17:14;;;;;;;0.70;0.70;;;24.40;46.90;;;;;;4995630;28;20592;-69
2022/05/03 11:19:51;;;;;;;0.70;0.60;;;24.10;45.60;;;;;;4995412;28;20826;-70
2022/05/03 11:22:21;;;;;;;0.70;0.70;;;23.60;47.80;;;;;;4995550;28;20457;-69
2022/05/03 11:24:50;;;;;;;0.70;0.60;;;23.70;48.20;;;;;;4995501;28;20492;-69
2022/05/03 11:27:18;;;;;;;0.80;0.70;;;23.60;48.80;;;;;;4995427;28;20445;-70
2022/05/03 11:29:47;;;;;;;0.60;0.60;;;23.70;47.90;;;;;;4994756;28;20449;-68
2022/05/03 11:32:15;;;;;;;0.70;0.70;;;24.00;49.30;;;;;;4994974;28;20900;-69
2022/05/03 11:34:43;;;;;;;0.70;0.70;;;24.00;49.40;;;;;;4995113;28;20971;-68
2022/05/03 11:37:10;;;;;;;0.93;0.60;;;24.50;48.00;;;;;;4995060;28;20461;-69
2022/05/03 11:39:38;;;;;;;0.80;0.80;;;24.70;47.40;;;;;;4995261;28;20477;-69
2022/05/03 11:42:06;;;;;;;1.10;0.70;;;25.20;46.70;;;;;;4995178;28;20465;-69
2022/05/03 11:44:33;;;;;;;0.73;0.70;;;25.20;45.90;;;;;;4995117;28;20445;-70
2022/05/03 11:47:04;;;;;;;0.80;0.70;;;25.20;46.00;;;;;;4995047;28;20456;-69
2022/05/03 11:49:32;;;;;;;0.70;0.60;;;25.50;45.80;;;;;;4994837;28;20536;-69
2022/05/03 11:57:35;;;;;;;0.70;0.60;;;25.60;45.10;;;;;;4994952;28;20460;-70
2022/05/03 12:00:04;;;;;;;0.60;0.60;;;25.20;46.00;;;;;;4994557;28;20499;-69
2022/05/03 12:02:33;;;;;;;0.70;0.70;;;25.00;46.40;;;;;;4994387;28;20499;-70
2022/05/03 12:05:15;;;;;;;0.80;0.80;;;24.60;47.00;;;;;;4994795;28;20472;-69
2022/05/03 12:07:44;;;;;;;0.73;0.70;;;24.50;47.10;;;;;;4994712;28;20429;-68
2022/05/03 12:10:21;;;;;;;0.70;0.70;;;24.80;47.70;;;;;;4994548;28;20445;-69
2022/05/03 12:13:03;;;;;;;0.80;0.80;;;24.80;46.50;;;;;;4994725;28;20433;-69
2022/05/03 12:15:30;;;;;;;0.87;0.60;;;24.50;45.30;;;;;;4994611;28;20846;-69
2022/05/03 12:18:01;;;;;;;0.60;0.60;;;24.40;46.10;;;;;;4994318;28;20554;-69
2022/05/03 12:20:40;;;;;;;1.33;0.60;;;24.20;47.70;;;;;;4995258;28;20836;-69
2022/05/03 12:23:12;;;;;;;0.90;0.70;;;24.20;46.20;;;;;;4994183;28;20995;-69
2022/05/03 12:25:41;;;;;;;0.70;0.67;;;24.60;47.50;;;;;;4994556;28;20547;-69
2022/05/03 12:28:08;;;;;;;0.70;0.70;;;25.00;46.60;;;;;;4994174;28;20944;-69
2022/05/03 12:30:35;;;;;;;0.80;0.70;;;25.50;44.90;;;;;;4994301;28;20877;-68
2022/05/03 12:33:04;;;;;;;0.73;0.73;;;25.80;45.40;;;;;;4994442;28;20452;-69
2022/05/03 12:35:32;;;;;;;0.70;0.70;;;25.80;43.80;;;;;;4994253;28;20541;-68
2022/05/03 12:38:07;;;;;;;0.80;0.70;;;25.90;45.80;;;;;;4993987;28;20567;-68
2022/05/03 12:40:34;;;;;;;0.70;0.70;;;26.20;46.50;;;;;;4993885;28;20833;-69
2022/05/03 12:43:12;;;;;;;1.00;0.70;;;25.70;43.80;;;;;;4993510;28;20547;-68
2022/05/03 12:45:39;;;;;;;0.80;0.80;;;25.20;45.20;;;;;;4994131;28;20468;-69
2022/05/03 12:48:07;;;;;;;0.90;0.90;;;24.70;45.80;;;;;;4994091;28;20440;-69
2022/05/03 12:50:34;;;;;;;0.70;0.60;;;23.30;48.70;;;;;;4993573;28;20451;-68
2022/05/03 12:53:00;;;;;;;0.90;0.70;;;22.00;51.50;;;;;;4993972;28;20653;-68
2022/05/03 12:55:28;;;;;;;0.70;0.63;;;20.90;54.20;;;;;;4993907;28;20449;-68
2022/05/03 13:00:40;;;;;;;0.77;0.77;;;19.00;59.70;;;;;;4993854;28;20572;-68
2022/05/03 13:03:10;;;;;;;1.23;0.73;;;18.30;60.10;;;;;;4994099;28;20465;-69
2022/05/03 13:05:38;;;;;;;0.70;0.60;;;18.00;60.30;;;;;;4994014;28;20476;-68
2022/05/03 13:08:06;;;;;;;1.30;0.80;;;17.50;59.50;;;;;;4993911;28;20453;-68
2022/05/03 13:10:33;;;;;;;0.80;0.70;;;17.50;61.00;;;;;;4994165;28;20520;-68
2022/05/03 13:13:01;;;;;;;0.70;0.70;;;17.40;62.60;;;;;;4993932;28;20659;-68
2022/05/03 13:15:28;;;;;;;0.80;0.80;;;17.40;64.10;;;;;;4993821;28;20491;-69
2022/05/03 13:17:56;;;;;;;1.20;0.90;;;17.10;65.10;;;;;;4993746;28;20485;-68
2022/05/03 13:20:23;;;;;;;0.70;0.70;;;17.00;67.20;;;;;;4993821;28;20475;-68
2022/05/03 13:22:49;;;;;;;0.70;0.70;;;17.00;66.60;;;;;;4993770;28;20449;-68
2022/05/03 13:25:17;;;;;;;0.80;0.80;;;16.90;66.90;;;;;;4993776;28;20449;-68
2022/05/03 13:27:44;;;;;;;0.70;0.70;;;16.90;67.70;;;;;;4993851;28;20829;-68
2022/05/03 13:30:11;;;;;;;0.73;0.70;;;16.90;69.30;;;;;;4993601;28;20449;-68
2022/05/03 13:32:38;;;;;;;0.70;0.70;;;17.10;69.70;;;;;;4993538;28;20500;-67
2022/05/03 13:35:08;;;;;;;0.80;0.80;;;17.40;69.60;;;;;;4993596;28;20457;-68
2022/05/03 13:40:33;;;;;;;1.07;1.07;;;17.90;70.40;;;;;;4993353;28;20409;-67
2022/05/03 13:43:02;;;;;;;0.80;0.70;;;18.10;68.50;;;;;;4993400;28;20846;-68
2022/05/03 13:45:29;;;;;;;0.70;0.63;;;18.40;68.30;;;;;;4993415;28;20452;-67
2022/05/03 13:47:56;;;;;;;0.70;0.70;;;18.60;67.30;;;;;;4993272;28;20949;-68
2022/05/03 13:50:24;;;;;;;0.77;0.77;;;18.70;67.00;;;;;;4993343;28;20445;-68
2022/05/03 13:52:51;;;;;;;0.80;0.70;;;18.80;66.90;;;;;;4994046;28;20948;-68
2022/05/03 13:55:17;;;;;;;0.70;0.60;;;18.90;67.50;;;;;;4996895;28;20590;-68
2022/05/03 13:57:44;;;;;;;0.80;0.80;;;18.90;68.30;;;;;;4996843;28;20453;-68
2022/05/03 14:00:11;;;;;;;0.80;0.80;;;19.10;67.00;;;;;;4996875;28;20453;-68
2022/05/03 14:02:39;;;;;;;0.90;0.90;;;19.20;66.80;;;;;;4996377;28;21004;-67
2022/05/03 14:05:07;;;;;;;1.20;1.10;;;19.10;70.20;;;;;;4996481;28;20511;-68
2022/05/03 14:07:35;;;;;;;0.97;0.97;;;19.00;70.60;;;;;;4996662;28;20533;-68
2022/05/03 14:10:03;;;;;;;0.80;0.80;;;18.90;70.70;;;;;;4996683;28;20446;-68
2022/05/03 14:12:30;;;;;;;1.37;0.93;;;18.80;71.00;;;;;;4996581;28;20473;-68
2022/05/03 14:14:57;;;;;;;0.80;0.80;;;18.80;71.20;;;;;;4996640;28;20456;-68
2022/05/03 14:17:24;;;;;;;0.70;0.70;;;18.80;71.50;;;;;;4996498;28;20484;-67
2022/05/03 14:19:51;;;;;;;0.70;0.70;;;18.80;71.80;;;;;;4996407;28;20485;-68
2022/05/03 14:22:17;;;;;;;0.90;0.90;;;18.90;70.70;;;;;;4996119;28;20904;-68
2022/05/03 14:24:45;;;;;;;0.80;0.80;;;19.00;70.60;;;;;;4996402;28;20456;-67
2022/05/03 14:27:12;;;;;;;0.70;0.70;;;19.00;70.50;;;;;;4996404;28;20449;-67
2022/05/03 14:29:39;;;;;;;1.27;0.90;;;19.10;70.00;;;;;;4996272;28;20527;-67
2022/05/03 14:32:07;;;;;;;0.87;0.83;;;19.10;70.30;;;;;;4996134;28;20472;-67
2022/05/03 14:34:34;;;;;;;0.90;0.80;;;19.20;70.00;;;;;;4995887;28;20453;-67
2022/05/03 14:37:01;;;;;;;0.80;0.80;;;19.30;70.10;;;;;;4996221;28;20602;-68
2022/05/03 14:39:27;;;;;;;0.83;0.83;;;19.30;68.60;;;;;;4995827;28;21054;-68
2022/05/03 14:41:56;;;;;;;1.70;0.70;;;19.20;70.70;;;;;;4995904;28;20988;-68
2022/05/03 14:44:23;;;;;;;0.90;0.90;;;19.30;70.70;;;;;;4996237;28;20445;-68
2022/05/03 14:46:49;;;;;;;1.10;0.80;;;19.30;69.90;;;;;;4996036;28;20464;-67
2022/05/03 14:49:16;;;;;;;0.70;0.70;;;19.40;70.10;;;;;;4996039;28;20499;-68
2022/05/03 14:51:43;;;;;;;1.00;0.90;;;19.40;70.40;;;;;;4995926;28;20528;-67
2022/05/03 14:54:11;;;;;;;1.10;1.00;;;19.50;69.90;;;;;;4995897;28;20449;-67
2022/05/03 15:04:56;;;;;;;0.70;0.70;;;19.80;67.50;;;;;;4994850;28;20770;-68
2022/05/03 15:07:22;;;;;;;0.60;0.60;;;20.00;69.30;;;;;;4995753;28;20507;-68
2022/05/03 15:09:49;;;;;;;0.77;0.67;;;20.10;68.60;;;;;;4995664;28;20511;-69
2022/05/03 15:12:16;;;;;;;0.70;0.70;;;20.20;67.10;;;;;;4995146;28;20988;-67
2022/05/03 15:17:11;;;;;;;0.70;0.70;;;20.20;64.90;;;;;;4974684;28;20473;-72
2022/05/03 15:19:39;;;;;;;1.17;0.80;;;20.20;65.50;;;;;;4975601;28;21100;-72
2022/05/03 15:22:06;;;;;;;0.90;0.60;;;20.30;66.30;;;;;;4975894;28;20504;-72
2022/05/03 15:24:38;;;;;;;0.70;0.67;;;20.30;67.00;;;;;;4975961;28;20450;-73
2022/05/03 15:27:07;;;;;;;0.70;0.70;;;20.30;64.50;;;;;;4956659;28;20438;-72
2022/05/03 15:29:34;;;;;;;0.70;0.70;;;20.10;65.00;;;;;;4956154;28;20931;-72
2022/05/03 15:32:28;;;;;;;0.70;0.70;;;20.20;64.70;;;;;;4956259;28;20454;-72
2022/05/03 15:34:56;;;;;;;0.90;0.70;;;20.30;66.30;;;;;;4956340;28;20510;-72
2022/05/03 15:37:24;;;;;;;0.70;0.70;;;20.40;66.40;;;;;;4956363;28;20483;-72
2022/05/03 15:39:52;;;;;;;1.00;0.80;;;20.40;66.50;;;;;;4956243;28;20483;-73
2022/05/03 15:42:20;;;;;;;0.80;0.70;;;20.40;68.60;;;;;;4956269;28;20462;-73
2022/05/03 15:44:51;;;;;;;0.60;0.60;;;20.30;67.60;;;;;;4956188;28;20450;-74
2022/05/03 15:47:19;;;;;;;0.70;0.70;;;20.10;67.70;;;;;;4956264;28;20439;-74
2022/05/03 15:49:47;;;;;;;0.90;0.80;;;20.10;68.50;;;;;;4956137;28;20447;-74
2022/05/03 15:52:14;;;;;;;0.70;0.70;;;20.00;69.30;;;;;;4956091;28;20567;-73
2022/05/03 15:54:40;;;;;;;0.90;0.67;;;20.10;69.10;;;;;;4956028;28;20514;-74
2022/05/03 15:57:08;;;;;;;0.70;0.70;;;20.20;68.80;;;;;;4956092;28;20454;-74
2022/05/03 15:59:35;;;;;;;0.70;0.70;;;20.20;68.50;;;;;;4955890;28;20486;-74
2022/05/03 16:02:02;;;;;;;0.70;0.70;;;20.30;68.10;;;;;;4955630;28;20947;-73
2022/05/03 16:04:30;;;;;;;0.67;0.67;;;20.30;68.50;;;;;;4955917;28;20450;-73
2022/05/03 16:06:59;;;;;;;0.67;0.60;;;20.40;67.90;;;;;;4955507;28;20993;-74
2022/05/03 16:09:26;;;;;;;0.70;0.70;;;20.40;66.90;;;;;;4955795;28;20459;-74
2022/05/03 16:11:54;;;;;;;0.70;0.63;;;20.50;66.80;;;;;;4955817;28;20454;-73
2022/05/03 16:14:21;;;;;;;0.80;0.73;;;20.30;66.80;;;;;;4955760;28;20459;-74
2022/05/03 16:16:48;;;;;;;0.70;0.70;;;20.20;66.90;;;;;;4954404;28;20478;-73
2022/05/03 16:19:15;;;;;;;0.80;0.70;;;20.30;65.60;;;;;;4955836;28;20520;-73
2022/05/03 16:21:42;;;;;;;0.77;0.77;;;20.30;66.00;;;;;;4956365;28;20451;-73
2022/05/03 16:24:10;;;;;;;0.70;0.60;;;20.20;64.30;;;;;;4955601;28;20938;-73
2022/05/03 16:26:37;;;;;;;0.70;0.63;;;20.10;64.80;;;;;;4955559;28;20885;-73
2022/05/03 16:29:04;;;;;;;0.70;0.70;;;20.00;64.20;;;;;;4955195;28;20499;-73
2022/05/03 16:31:31;;;;;;;0.80;0.70;;;19.90;65.00;;;;;;4955142;28;20455;-73
2022/05/03 16:33:58;;;;;;;0.80;0.80;;;19.90;65.40;;;;;;4955447;28;20816;-73
2022/05/03 16:42:11;;;;;;;0.80;0.80;;;20.10;65.20;;;;;;4955359;29;20480;-73
2022/05/03 16:44:38;;;;;;;0.70;0.70;;;20.10;65.80;;;;;;4955447;28;20442;-73
2022/05/03 16:47:05;;;;;;;0.80;0.80;;;20.10;65.40;;;;;;4955383;28;20514;-73